TimePDT,TemperatureF,Dew PointF,Humidity,Sea Level PressureIn,VisibilityMPH,Wind Direction,Wind SpeedMPH,Gust SpeedMPH,PrecipitationIn,Events,Conditions,WindDirDegrees,DateUTC
12:24 AM,32.0,30.9,96,29.89,0.2,South,15.0,23.0,0.01,Fog,Fog,170,2014-03-27 07:24:00
12:37 AM,32.0,30.9,96,29.89,0.2,South,15.0,21.9,0.03,Fog-Rain,Light Freezing Rain,180,2014-03-27 07:37:00
12:45 AM,32.0,30.9,96,29.89,0.2,South,13.8,23.0,0.03,Fog-Rain,Light Freezing Rain,180,2014-03-27 07:45:00
12:52 AM,32.0,30.9,96,29.92,0.2,South,9.2,25.3,0.04,Fog-Rain,Light Freezing Rain,190,2014-03-27 07:52:00
12:59 AM,32.0,30.9,96,29.89,0.2,South,11.5,17.3,0.00,Fog-Rain,Light Freezing Rain,190,2014-03-27 07:59:00
1:07 AM,32.0,30.9,96,29.89,0.5,South,13.8,20.7,0.01,Fog-Snow,Light Snow,190,2014-03-27 08:07:00
1:36 AM,32.0,30.9,96,29.89,0.2,South,11.5,24.2,0.06,Fog-Snow,Light Snow,190,2014-03-27 08:36:00
1:48 AM,32.0,30.2,93,29.90,0.5,South,12.7,19.6,0.10,Fog-Snow,Light Snow,190,2014-03-27 08:48:00
1:52 AM,32.0,30.9,96,29.93,0.5,South,8.1,18.4,0.11,Fog,Fog,190,2014-03-27 08:52:00
2:07 AM,32.0,30.0,92,29.91,0.2,South,11.5,20.7,0.02,Fog-Snow,Light Snow,190,2014-03-27 09:07:00
2:36 AM,32.0,30.0,92,29.91,0.5,South,18.4,24.2,0.04,Fog-Snow,Light Snow,180,2014-03-27 09:36:00
2:47 AM,32.0,30.2,93,29.91,0.2,South,12.7,21.9,0.05,Fog-Snow,Light Snow,190,2014-03-27 09:47:00
2:52 AM,32.0,30.0,92,29.95,0.5,South,10.4,20.7,0.05,Fog-Snow,Light Snow,190,2014-03-27 09:52:00
3:02 AM,30.9,30.0,96,29.91,0.2,South,16.1,21.9,0.01,Fog-Snow,Light Snow,190,2014-03-27 10:02:00
3:38 AM,32.0,30.0,92,29.91,0.5,South,12.7,-,0.03,Fog-Snow,Snow,170,2014-03-27 10:38:00
3:52 AM,30.9,30.0,96,29.94,0.5,South,12.7,-,0.05,Fog-Snow,Snow,180,2014-03-27 10:52:00
4:31 AM,30.9,30.0,96,29.91,0.2,South,10.4,-,0.02,Fog-Snow,Light Snow,180,2014-03-27 11:31:00
4:52 AM,30.9,30.0,96,29.94,0.8,South,8.1,-,0.05,Snow,Light Snow,180,2014-03-27 11:52:00
5:21 AM,30.9,30.0,96,29.92,0.2,South,9.2,-,0.02,Fog-Snow,Light Snow,180,2014-03-27 12:21:00
5:31 AM,30.9,30.0,96,29.92,0.8,South,6.9,-,0.03,Snow,Light Snow,190,2014-03-27 12:31:00
5:52 AM,30.9,30.0,96,29.96,0.5,SW,5.8,-,0.06,Fog-Snow,Snow,220,2014-03-27 12:52:00
6:16 AM,30.9,28.9,92,29.93,0.2,SW,8.1,-,0.02,Fog,Light Freezing Fog,220,2014-03-27 13:16:00
6:49 AM,30.2,30.2,100,29.94,0.5,SSW,5.8,-,0.03,Fog-Snow,Light Snow,210,2014-03-27 13:49:00
6:52 AM,30.9,30.0,96,29.98,0.5,SSW,6.9,-,0.03,Fog-Snow,Light Snow,210,2014-03-27 13:52:00
6:59 AM,30.9,30.0,96,29.94,0.2,SSW,8.1,-,0.00,Fog-Snow,Light Snow,200,2014-03-27 13:59:00
7:09 AM,30.9,30.0,96,29.95,0.8,South,10.4,-,0.03,,Mist,180,2014-03-27 14:09:00
7:21 AM,30.9,30.0,96,29.96,0.2,South,9.2,-,0.05,Fog-Snow,Light Snow,190,2014-03-27 14:21:00
7:47 AM,32.0,30.2,93,29.97,0.5,South,11.5,-,0.11,Fog-Snow,Light Snow,190,2014-03-27 14:47:00
7:52 AM,32.0,30.0,92,30.00,0.2,SSW,8.1,-,0.11,Fog-Snow,Light Snow,200,2014-03-27 14:52:00
8:50 AM,32.0,30.2,93,29.98,0.5,SSW,9.2,-,0.08,Fog-Snow,Light Snow,200,2014-03-27 15:50:00
8:52 AM,32.0,30.0,92,30.02,0.5,SSW,8.1,-,0.08,Fog-Snow,Light Snow,200,2014-03-27 15:52:00
9:07 AM,32.0,30.0,92,29.99,0.2,SSW,8.1,-,0.02,Fog-Snow,Light Snow,210,2014-03-27 16:07:00
9:52 AM,32.0,30.0,92,30.05,0.2,SW,9.2,-,0.06,Fog-Snow,Light Snow,220,2014-03-27 16:52:00
10:05 AM,32.0,30.0,92,30.02,0.5,South,10.4,-,0.00,Fog,Fog,180,2014-03-27 17:05:00
10:14 AM,32.0,30.9,96,30.02,0.2,SSW,6.9,-,0.01,Fog,Fog,210,2014-03-27 17:14:00
10:21 AM,32.0,30.0,92,30.02,0.8,Variable,6.9,-,0.01,,Overcast,0,2014-03-27 17:21:00
10:24 AM,32.0,30.0,92,30.02,1.8,South,5.8,-,0.01,,Overcast,190,2014-03-27 17:24:00
10:26 AM,32.0,30.0,92,30.02,3.0,South,6.9,-,0.01,,Overcast,190,2014-03-27 17:26:00
10:37 AM,32.0,30.0,92,30.02,0.8,South,6.9,-,0.01,,Overcast,180,2014-03-27 17:37:00
10:45 AM,32.0,30.9,96,30.03,0.2,South,10.4,-,0.01,Fog-Snow,Light Snow,190,2014-03-27 17:45:00
10:52 AM,32.0,30.0,92,30.06,0.5,SW,5.8,-,0.01,Fog,Fog,220,2014-03-27 17:52:00
10:56 AM,32.0,30.0,92,30.03,3.0,SSW,8.1,-,N/A,,Overcast,200,2014-03-27 17:56:00
11:01 AM,32.0,30.0,92,30.03,1.5,South,6.9,-,0.00,,Overcast,180,2014-03-27 18:01:00
11:05 AM,32.0,30.9,96,30.03,0.8,South,5.8,-,0.00,,Overcast,170,2014-03-27 18:05:00
11:16 AM,32.0,30.9,96,30.03,1.0,South,6.9,-,0.00,Snow,Light Snow,180,2014-03-27 18:16:00
11:25 AM,32.0,30.9,96,30.03,0.8,South,9.2,-,0.00,Snow,Light Snow,190,2014-03-27 18:25:00
11:35 AM,32.0,30.0,92,30.04,0.2,South,13.8,-,0.00,Fog-Snow,Light Snow,170,2014-03-27 18:35:00
11:52 AM,33.1,30.9,92,30.07,1.8,SSW,10.4,-,0.01,,Overcast,200,2014-03-27 18:52:00
11:54 AM,33.1,30.9,92,30.04,3.0,South,8.1,-,N/A,,Overcast,190,2014-03-27 18:54:00
12:07 PM,33.1,30.9,92,30.04,1.8,South,9.2,-,0.00,,Overcast,190,2014-03-27 19:07:00
12:11 PM,33.1,30.9,92,30.04,0.8,South,8.1,-,0.00,,Overcast,180,2014-03-27 19:11:00
12:22 PM,33.1,30.9,92,30.05,0.2,South,6.9,-,0.01,Fog-Snow,Light Snow,190,2014-03-27 19:22:00
12:29 PM,33.1,30.9,92,30.05,0.8,South,6.9,-,0.01,Snow,Light Snow,190,2014-03-27 19:29:00
12:48 PM,33.8,30.2,87,30.05,0.2,South,8.1,-,0.02,Fog-Snow,Light Snow,190,2014-03-27 19:48:00
12:52 PM,33.1,32.0,96,30.08,0.2,SSW,5.8,-,0.03,Fog-Snow,Light Snow,200,2014-03-27 19:52:00
1:52 PM,34.0,33.1,96,30.08,0.5,SSW,6.9,-,0.03,Fog-Snow,Light Snow,210,2014-03-27 20:52:00
1:59 PM,34.0,32.0,92,30.05,1.5,South,5.8,-,0.00,,Overcast,190,2014-03-27 20:59:00
2:01 PM,33.1,32.0,96,30.05,4.0,South,6.9,-,0.00,,Overcast,190,2014-03-27 21:01:00
2:13 PM,34.0,32.0,92,30.05,1.8,South,4.6,-,0.00,Snow,Light Snow,190,2014-03-27 21:13:00
2:17 PM,33.1,30.9,92,30.05,0.8,SSW,8.1,-,0.01,Snow,Light Snow,210,2014-03-27 21:17:00
2:42 PM,33.1,32.0,96,30.05,0.2,South,6.9,-,0.04,Fog-Snow,Light Snow,170,2014-03-27 21:42:00
2:52 PM,34.0,32.0,92,30.08,0.8,SW,10.4,-,0.04,,Mist,220,2014-03-27 21:52:00
3:02 PM,33.1,32.0,96,30.05,0.2,South,6.9,-,0.00,Fog-Snow,Light Snow,190,2014-03-27 22:02:00
3:52 PM,34.0,32.0,92,30.09,0.2,South,4.6,-,0.02,Fog-Snow,Light Snow,190,2014-03-27 22:52:00
3:58 PM,34.0,32.0,92,30.06,1.0,SSW,8.1,-,0.00,,Mist,210,2014-03-27 22:58:00
4:01 PM,34.0,32.0,92,30.06,2.0,SSW,6.9,-,0.00,,Overcast,210,2014-03-27 23:01:00
4:04 PM,34.0,32.0,92,30.06,0.8,SSE,6.9,-,0.00,,Mist,160,2014-03-27 23:04:00
4:12 PM,34.0,32.0,92,30.06,0.2,South,4.6,-,0.00,Fog,Fog,170,2014-03-27 23:12:00
4:45 PM,34.0,33.1,96,30.06,1.0,South,6.9,-,0.00,,Mist,170,2014-03-27 23:45:00
4:52 PM,34.0,33.1,96,30.08,0.8,SSE,6.9,-,0.00,,Mist,160,2014-03-27 23:52:00
4:59 PM,34.0,32.0,92,30.05,1.8,South,5.8,-,N/A,,Overcast,170,2014-03-27 23:59:00
5:06 PM,34.0,32.0,92,30.05,8.0,Variable,5.8,-,N/A,,Overcast,0,2014-03-28 00:06:00
5:19 PM,35.1,33.1,92,30.05,1.5,SSE,4.6,-,N/A,,Overcast,150,2014-03-28 00:19:00
5:22 PM,35.1,33.1,92,30.05,0.8,SE,4.6,-,N/A,,Overcast,130,2014-03-28 00:22:00
5:31 PM,34.0,32.0,92,30.05,1.5,SSE,4.6,-,N/A,,Overcast,150,2014-03-28 00:31:00
5:33 PM,34.0,32.0,92,30.06,3.0,South,5.8,-,N/A,,Overcast,170,2014-03-28 00:33:00
5:39 PM,34.0,33.1,96,30.06,1.8,SE,5.8,-,N/A,,Overcast,140,2014-03-28 00:39:00
5:46 PM,33.8,33.8,100,30.06,0.8,SSE,4.6,-,N/A,,Overcast,160,2014-03-28 00:46:00
5:52 PM,34.0,32.0,92,30.09,0.2,SSE,6.9,-,0.00,Fog,Fog,160,2014-03-28 00:52:00
6:02 PM,33.1,30.9,92,30.07,0.8,South,9.2,-,0.02,Snow,Light Snow,170,2014-03-28 01:02:00
6:12 PM,34.0,32.0,92,30.07,0.2,SSE,4.6,-,0.03,Fog-Snow,Light Snow,160,2014-03-28 01:12:00
6:52 PM,34.0,32.0,92,30.11,0.2,SE,6.9,-,0.03,Fog,Fog,140,2014-03-28 01:52:00
7:27 PM,34.0,32.0,92,30.07,0.5,ESE,3.5,-,0.00,Fog,Fog,120,2014-03-28 02:27:00
7:41 PM,34.0,32.0,92,30.07,1.5,SSE,4.6,-,0.00,,Overcast,150,2014-03-28 02:41:00
7:44 PM,34.0,32.0,92,30.08,3.0,Variable,3.5,-,0.00,,Overcast,0,2014-03-28 02:44:00
7:52 PM,34.0,32.0,92,30.11,5.0,SSE,5.8,-,0.00,,Overcast,150,2014-03-28 02:52:00
8:27 PM,34.0,32.0,92,30.09,2.5,SE,5.8,-,0.00,,Overcast,140,2014-03-28 03:27:00
8:38 PM,34.0,32.0,92,30.09,1.5,SE,5.8,-,0.00,Rain,Light Rain,140,2014-03-28 03:38:00
8:52 PM,34.0,32.0,92,30.12,0.5,SE,5.8,-,0.00,Fog,Fog,140,2014-03-28 03:52:00
9:00 PM,34.0,32.0,92,30.09,0.2,SE,4.6,-,N/A,Fog,Fog,140,2014-03-28 04:00:00
9:52 PM,34.0,33.1,96,30.15,0.2,SE,3.5,-,N/A,Fog,Fog,140,2014-03-28 04:52:00
10:14 PM,34.0,33.1,96,30.12,1.0,SSE,5.8,-,N/A,,Mist,150,2014-03-28 05:14:00
10:24 PM,34.0,33.1,96,30.12,0.5,Variable,3.5,-,N/A,Fog,Fog,0,2014-03-28 05:24:00
10:32 PM,34.0,33.1,96,30.12,0.2,Variable,4.6,-,N/A,Fog,Fog,0,2014-03-28 05:32:00
10:43 PM,34.0,33.1,96,30.13,0.5,Variable,5.8,-,N/A,Fog,Fog,0,2014-03-28 05:43:00
10:50 PM,33.8,33.8,100,30.13,1.5,SE,3.5,-,N/A,,Overcast,140,2014-03-28 05:50:00
10:52 PM,34.0,33.1,96,30.17,1.0,Variable,3.5,-,N/A,,Mist,0,2014-03-28 05:52:00
11:01 PM,34.0,33.1,96,30.14,0.8,SE,4.6,-,N/A,,Mist,140,2014-03-28 06:01:00
11:09 PM,34.0,33.1,96,30.14,1.2,ESE,3.5,-,N/A,,Overcast,120,2014-03-28 06:09:00
11:20 PM,34.0,33.1,96,30.14,2.0,SE,3.5,-,N/A,,Overcast,130,2014-03-28 06:20:00
11:30 PM,34.0,33.1,96,30.14,1.2,SE,4.6,-,N/A,,Overcast,130,2014-03-28 06:30:00
11:41 PM,34.0,33.1,96,30.14,0.8,SE,4.6,-,N/A,,Mist,140,2014-03-28 06:41:00
11:52 PM,34.0,33.1,96,30.16,1.2,SSE,5.8,-,N/A,,Overcast,150,2014-03-28 06:52:00